createdAt,value
2019-02-22T00:04:38.215Z,9.10
2019-02-22T00:07:18.950Z,9.10
2019-02-22T00:09:59.815Z,8.30
2019-02-22T00:12:40.779Z,9.10
2019-02-22T00:15:21.839Z,9.10
2019-02-22T00:18:02.835Z,9.10
2019-02-22T00:20:43.872Z,9.00
2019-02-22T00:23:24.546Z,9.00
2019-02-22T00:26:05.110Z,9.00
2019-02-22T00:28:46.298Z,9.00
2019-02-22T00:31:27.039Z,9.00
2019-02-22T00:34:08.325Z,8.90
2019-02-22T00:36:49.035Z,8.90
2019-02-22T00:39:29.946Z,8.90
2019-02-22T00:42:10.610Z,8.90
2019-02-22T00:44:51.215Z,8.90
2019-02-22T00:47:32.152Z,8.90
2019-02-22T00:50:13.152Z,8.90
2019-02-22T00:52:54.223Z,8.80
2019-02-22T00:55:35.130Z,8.80
2019-02-22T00:58:15.710Z,8.80
2019-02-22T01:00:56.718Z,8.80
2019-02-22T01:03:37.743Z,8.80
2019-02-22T01:06:18.640Z,8.80
2019-02-22T01:08:59.598Z,8.70
2019-02-22T01:11:40.455Z,8.80
2019-02-22T01:14:22.579Z,8.70
2019-02-22T01:17:03.384Z,8.70
2019-02-22T01:19:43.915Z,8.70
2019-02-22T01:22:24.576Z,8.70
2019-02-22T01:25:05.450Z,8.70
2019-02-22T01:27:46.186Z,8.70
2019-02-22T01:30:27.114Z,8.70
2019-02-22T01:33:07.962Z,8.60
2019-02-22T01:35:48.895Z,8.60
2019-02-22T01:38:29.545Z,8.60
2019-02-22T01:41:10.174Z,8.60
2019-02-22T01:43:51.136Z,8.50
2019-02-22T01:46:31.775Z,8.50
2019-02-22T01:49:12.409Z,8.50
2019-02-22T01:51:52.971Z,7.20
2019-02-22T01:54:33.987Z,8.50
2019-02-22T01:57:14.494Z,8.50
2019-02-22T01:59:55.408Z,8.40
2019-02-22T02:02:36.135Z,8.50
2019-02-22T02:05:17.161Z,8.40
2019-02-22T02:07:57.446Z,8.40
2019-02-22T02:10:38.187Z,8.40
2019-02-22T02:13:18.616Z,8.40
2019-02-22T02:15:59.117Z,8.30
2019-02-22T02:18:39.911Z,8.30
2019-02-22T02:21:20.535Z,8.30
2019-02-22T02:24:01.504Z,8.40
2019-02-22T02:26:42.713Z,8.40
2019-02-22T02:29:23.480Z,8.30
2019-02-22T02:32:04.106Z,8.30
2019-02-22T02:34:44.659Z,8.30
2019-02-22T02:37:25.592Z,8.30
2019-02-22T02:40:06.455Z,8.30
2019-02-22T02:42:46.979Z,8.30
2019-02-22T02:45:27.916Z,8.30
2019-02-22T02:48:08.487Z,8.30
2019-02-22T02:50:49.019Z,8.30
2019-02-22T02:53:29.691Z,8.30
2019-02-22T02:56:10.746Z,8.30
2019-02-22T02:58:51.657Z,8.30
2019-02-22T03:01:32.402Z,8.20
2019-02-22T03:04:13.319Z,8.20
2019-02-22T03:06:55.768Z,8.20
2019-02-22T03:09:36.754Z,8.20
2019-02-22T03:12:17.308Z,8.20
2019-02-22T03:14:57.967Z,8.20
2019-02-22T03:17:38.871Z,8.20
2019-02-22T03:20:19.611Z,8.10
2019-02-22T03:23:00.468Z,8.10
2019-02-22T03:25:40.994Z,8.10
2019-02-22T03:28:21.473Z,8.10
2019-02-22T03:31:02.405Z,8.00
2019-02-22T03:33:42.796Z,8.00
2019-02-22T03:36:23.509Z,7.90
2019-02-22T03:39:04.691Z,7.90
2019-02-22T03:41:45.522Z,7.80
2019-02-22T03:44:26.161Z,7.70
2019-02-22T03:47:06.589Z,7.70
2019-02-22T03:49:47.540Z,7.60
2019-02-22T03:52:30.097Z,7.60
2019-02-22T03:55:11.064Z,7.40
2019-02-22T03:57:52.148Z,7.40
2019-02-22T04:00:32.995Z,7.30
2019-02-22T04:03:13.435Z,7.20
2019-02-22T04:05:53.734Z,7.20
2019-02-22T04:08:34.418Z,7.10
2019-02-22T04:11:15.242Z,7.10
2019-02-22T04:13:55.558Z,7.00
2019-02-22T04:16:36.442Z,7.00
2019-02-22T04:19:17.194Z,6.10
2019-02-22T04:21:58.043Z,7.00
2019-02-22T04:24:38.746Z,7.00
2019-02-22T04:27:19.359Z,6.90
2019-02-22T04:30:00.040Z,6.90
2019-02-22T04:32:40.912Z,6.70
2019-02-22T04:35:21.386Z,6.60
2019-02-22T04:38:01.784Z,6.30
2019-02-22T04:40:42.808Z,6.20
2019-02-22T04:43:23.489Z,6.10
2019-02-22T04:46:04.410Z,6.00
2019-02-22T04:48:44.970Z,5.90
2019-02-22T04:51:26.074Z,5.80
2019-02-22T04:54:07.163Z,5.80
2019-02-22T04:56:47.715Z,5.70
2019-02-22T04:59:28.344Z,5.60
2019-02-22T05:02:09.374Z,5.50
2019-02-22T05:04:49.945Z,5.40
2019-02-22T05:07:30.536Z,5.30
2019-02-22T05:10:11.382Z,5.10
2019-02-22T05:12:52.260Z,5.10
2019-02-22T05:15:32.949Z,5.00
2019-02-22T05:18:13.493Z,5.00
2019-02-22T05:20:54.247Z,4.90
2019-02-22T05:23:35.175Z,4.80
2019-02-22T05:26:16.084Z,4.70
2019-02-22T05:28:57.113Z,4.70
2019-02-22T05:31:37.543Z,4.60
2019-02-22T05:34:18.266Z,4.60
2019-02-22T05:36:58.967Z,4.60
2019-02-22T05:39:39.511Z,3.90
2019-02-22T05:42:22.830Z,4.60
2019-02-22T05:45:02.376Z,4.60
2019-02-22T05:47:43.243Z,4.60
2019-02-22T05:50:24.158Z,4.60
2019-02-22T05:53:05.208Z,4.60
2019-02-22T05:55:46.264Z,4.60
2019-02-22T05:58:27.193Z,4.50
2019-02-22T06:01:07.614Z,4.50
2019-02-22T06:03:47.931Z,4.50
2019-02-22T06:06:28.969Z,4.50
2019-02-22T06:09:09.799Z,4.50
2019-02-22T06:11:50.467Z,4.50
2019-02-22T06:14:31.287Z,4.50
2019-02-22T06:17:14.755Z,4.50
2019-02-22T06:19:55.342Z,4.40
2019-02-22T06:22:36.273Z,4.40
2019-02-22T06:28:25.207Z,4.40
2019-02-22T06:31:06.125Z,4.30
2019-02-22T06:33:47.070Z,4.30
2019-02-22T06:36:27.763Z,4.00
2019-02-22T06:39:08.544Z,4.30
2019-02-22T06:41:49.266Z,4.20
2019-02-22T06:44:29.955Z,4.20
2019-02-22T06:47:10.928Z,4.10
2019-02-22T06:49:51.412Z,3.40
2019-02-22T06:52:32.183Z,4.00
2019-02-22T06:55:12.995Z,3.90
2019-02-22T06:57:53.743Z,3.80
2019-02-22T07:00:34.277Z,3.80
2019-02-22T07:03:14.958Z,3.80
2019-02-22T07:05:55.623Z,3.70
2019-02-22T07:08:36.340Z,3.70
2019-02-22T07:14:24.267Z,3.70
2019-02-22T07:17:05.259Z,3.70
2019-02-22T07:19:46.255Z,3.60
2019-02-22T07:22:26.818Z,3.60
2019-02-22T07:25:07.344Z,3.40
2019-02-22T07:27:48.163Z,3.40
2019-02-22T07:30:28.967Z,3.20
2019-02-22T07:33:09.630Z,2.10
2019-02-22T07:35:50.469Z,3.10
2019-02-22T07:38:30.923Z,3.10
2019-02-22T07:41:11.753Z,2.90
2019-02-22T07:43:52.763Z,2.90
2019-02-22T07:46:33.511Z,2.80
2019-02-22T07:49:14.262Z,2.70
2019-02-22T07:51:54.574Z,2.00
2019-02-22T07:54:35.210Z,2.50
2019-02-22T07:57:15.746Z,2.40
2019-02-22T07:59:56.235Z,2.30
2019-02-22T08:02:36.891Z,2.30
2019-02-22T08:05:17.785Z,2.40
2019-02-22T08:07:58.295Z,2.40
2019-02-22T08:10:38.784Z,2.50
2019-02-22T08:13:20.138Z,2.60
2019-02-22T08:16:01.177Z,2.70
2019-02-22T08:18:42.090Z,2.70
2019-02-22T08:21:22.608Z,2.90
2019-02-22T08:24:03.255Z,1.90
2019-02-22T08:26:43.854Z,2.80
2019-02-22T08:29:24.475Z,2.90
2019-02-22T08:32:05.404Z,2.90
2019-02-22T08:34:46.123Z,2.90
2019-02-22T08:37:26.975Z,2.90
2019-02-22T08:40:07.614Z,2.90
2019-02-22T08:42:48.619Z,3.00
2019-02-22T08:45:29.651Z,3.00
2019-02-22T08:48:10.575Z,3.00
2019-02-22T08:50:51.507Z,3.00
2019-02-22T08:53:32.453Z,3.00
2019-02-22T08:56:13.130Z,3.00
2019-02-22T08:58:53.650Z,2.90
2019-02-22T09:01:35.695Z,2.90
2019-02-22T09:04:17.002Z,2.90
2019-02-22T09:06:57.654Z,3.00
2019-02-22T09:09:38.487Z,3.00
2019-02-22T09:12:19.513Z,3.00
2019-02-22T09:15:00.512Z,3.10
2019-02-22T09:17:41.179Z,3.20
2019-02-22T09:20:21.749Z,3.30
2019-02-22T09:23:02.499Z,3.30
2019-02-22T09:25:43.246Z,3.30
2019-02-22T09:28:23.502Z,3.30
2019-02-22T09:31:04.138Z,3.40
2019-02-22T09:33:44.617Z,3.50
2019-02-22T09:36:25.075Z,3.60
2019-02-22T09:39:05.652Z,3.70
2019-02-22T09:41:46.537Z,3.70
2019-02-22T09:44:26.978Z,3.70
2019-02-22T09:47:07.445Z,3.70
2019-02-22T09:49:48.115Z,3.80
2019-02-22T09:52:28.883Z,3.80
2019-02-22T09:55:09.755Z,4.00
2019-02-22T09:57:50.571Z,4.00
2019-02-22T10:00:31.005Z,3.90
2019-02-22T10:03:11.563Z,3.70
2019-02-22T10:05:52.511Z,3.80
2019-02-22T10:08:33.197Z,3.80
2019-02-22T10:11:14.302Z,3.80
2019-02-22T10:14:06.065Z,3.70
2019-02-22T10:16:37.824Z,3.70
2019-02-22T10:19:18.267Z,3.80
2019-02-22T10:21:58.720Z,3.90
2019-02-22T10:24:39.401Z,4.00
2019-02-22T10:27:20.155Z,4.20
2019-02-22T10:30:00.846Z,4.30
2019-02-22T10:32:41.866Z,4.40
2019-02-22T10:35:22.740Z,4.40
2019-02-22T10:38:03.234Z,4.50
2019-02-22T10:40:43.956Z,4.60
2019-02-22T10:43:24.714Z,4.80
2019-02-22T10:46:05.595Z,4.80
2019-02-22T10:48:46.523Z,4.90
2019-02-22T10:51:27.132Z,4.80
2019-02-22T10:54:07.760Z,4.70
2019-02-22T10:56:48.715Z,4.40
2019-02-22T10:59:29.330Z,4.20
2019-02-22T11:02:10.259Z,4.20
2019-02-22T11:04:50.910Z,4.30
2019-02-22T11:07:31.685Z,4.40
2019-02-22T11:10:12.306Z,4.30
2019-02-22T11:12:52.882Z,4.30
2019-02-22T11:15:33.886Z,4.50
2019-02-22T11:18:14.751Z,4.60
2019-02-22T11:20:55.627Z,4.70
2019-02-22T11:23:36.629Z,4.80
2019-02-22T11:26:17.133Z,4.90
2019-02-22T11:28:57.824Z,4.90
2019-02-22T11:31:38.255Z,5.00
2019-02-22T11:34:19.022Z,5.10
2019-02-22T11:36:59.960Z,5.10
2019-02-22T11:39:40.643Z,5.10
2019-02-22T11:42:21.067Z,5.10
2019-02-22T11:45:01.919Z,5.10
2019-02-22T11:47:42.887Z,5.20
2019-02-22T11:50:23.291Z,5.30
2019-02-22T11:53:03.800Z,5.30
2019-02-22T11:55:44.355Z,5.20
2019-02-22T11:58:24.994Z,5.20
2019-02-22T12:01:05.903Z,5.20
2019-02-22T12:03:46.672Z,5.30
2019-02-22T12:06:27.678Z,5.30
2019-02-22T12:09:08.350Z,5.40
2019-02-22T12:11:49.166Z,5.50
2019-02-22T12:14:29.722Z,5.50
2019-02-22T12:17:10.521Z,5.60
2019-02-22T12:19:51.260Z,5.60
2019-02-22T12:22:32.384Z,5.60
2019-02-22T12:25:13.298Z,5.70
2019-02-22T12:27:54.275Z,5.70
2019-02-22T12:30:34.970Z,5.60
2019-02-22T12:33:15.910Z,5.60
2019-02-22T12:35:56.702Z,5.50
2019-02-22T12:38:37.326Z,5.60
2019-02-22T12:41:18.239Z,5.60
2019-02-22T12:43:59.992Z,5.50
2019-02-22T12:46:40.790Z,5.40
2019-02-22T12:49:21.420Z,5.50
2019-02-22T12:52:01.862Z,5.60
2019-02-22T12:54:42.800Z,5.60
2019-02-22T12:57:23.619Z,5.60
2019-02-22T13:00:04.033Z,5.50
2019-02-22T13:02:44.412Z,5.50
2019-02-22T13:05:25.179Z,5.50
2019-02-22T13:08:06.031Z,5.40
2019-02-22T13:10:46.784Z,5.50
2019-02-22T13:13:27.491Z,5.50
2019-02-22T13:16:08.230Z,5.50
2019-02-22T13:18:48.804Z,5.50
2019-02-22T13:21:29.861Z,5.40
2019-02-22T13:24:10.855Z,5.50
2019-02-22T13:26:51.880Z,5.50
2019-02-22T13:29:32.918Z,5.50
2019-02-22T13:32:13.720Z,5.50
2019-02-22T13:34:54.071Z,5.50
2019-02-22T13:37:34.925Z,5.50
2019-02-22T13:40:15.849Z,5.50
2019-02-22T13:42:56.495Z,5.40
2019-02-22T13:45:37.427Z,5.30
2019-02-22T13:48:18.195Z,5.30
2019-02-22T13:50:59.105Z,5.30
2019-02-22T13:53:39.634Z,5.40
2019-02-22T13:56:29.214Z,5.40
2019-02-22T13:59:02.974Z,5.50
2019-02-22T14:01:43.777Z,5.50
2019-02-22T14:04:25.744Z,5.50
2019-02-22T14:07:06.743Z,5.50
2019-02-22T14:09:47.164Z,5.50
2019-02-22T14:12:27.935Z,5.50
2019-02-22T14:15:08.863Z,5.30
2019-02-22T14:17:49.320Z,5.30
2019-02-22T14:20:29.923Z,5.40
2019-02-22T14:23:10.395Z,5.40
2019-02-22T14:25:51.200Z,5.30
2019-02-22T14:28:31.987Z,5.30
2019-02-22T14:31:12.419Z,5.30
2019-02-22T14:33:53.372Z,5.20
2019-02-22T14:36:33.908Z,5.00
2019-02-22T14:39:14.998Z,4.90
2019-02-22T14:41:55.411Z,5.00
2019-02-22T14:44:35.947Z,5.00
2019-02-22T14:47:16.556Z,5.00
2019-02-22T14:49:57.576Z,5.00
2019-02-22T14:52:37.889Z,4.90
2019-02-22T14:55:18.329Z,4.90
2019-02-22T14:57:59.298Z,4.80
2019-02-22T15:00:39.944Z,4.10
2019-02-22T15:03:20.864Z,4.90
2019-02-22T15:06:01.364Z,5.00
2019-02-22T15:08:41.994Z,5.00
2019-02-22T15:11:22.843Z,5.00
2019-02-22T15:14:03.973Z,5.00
2019-02-22T15:19:38.995Z,4.90
2019-02-22T15:22:19.760Z,4.80
2019-02-22T15:25:00.595Z,4.70
2019-02-22T15:27:41.509Z,4.70
2019-02-22T15:30:22.025Z,4.70
2019-02-22T15:33:05.428Z,4.60
2019-02-22T15:35:45.346Z,4.60
2019-02-22T15:38:26.101Z,4.50
2019-02-22T15:41:06.628Z,4.50
2019-02-22T15:43:47.579Z,4.50
2019-02-22T15:46:28.743Z,4.40
2019-02-22T15:49:09.123Z,4.30
2019-02-22T15:51:49.963Z,4.10
2019-02-22T15:54:30.878Z,4.00
2019-02-22T15:57:11.597Z,4.00
2019-02-22T15:59:52.465Z,3.90
2019-02-22T16:02:35.811Z,3.90
2019-02-22T16:05:17.428Z,3.80
2019-02-22T16:07:58.509Z,3.70
2019-02-22T16:10:39.113Z,3.60
2019-02-22T16:13:20.217Z,3.60
2019-02-22T16:16:00.989Z,3.60
2019-02-22T16:18:41.761Z,3.60
2019-02-22T16:21:22.554Z,3.50
2019-02-22T16:24:03.077Z,3.50
2019-02-22T16:26:43.890Z,3.50
2019-02-22T16:29:24.839Z,3.40
2019-02-22T16:32:05.981Z,3.40
2019-02-22T16:34:47.109Z,3.30
2019-02-22T16:37:28.419Z,3.30
2019-02-22T16:40:09.431Z,3.30
2019-02-22T16:42:50.318Z,3.20
2019-02-22T16:45:31.346Z,3.20
2019-02-22T16:48:11.911Z,3.10
2019-02-22T16:50:52.531Z,2.20
2019-02-22T16:53:33.123Z,3.00
2019-02-22T16:56:13.801Z,3.00
2019-02-22T16:58:54.674Z,2.90
2019-02-22T17:01:35.207Z,2.90
2019-02-22T17:04:15.695Z,2.70
2019-02-22T17:06:56.328Z,2.70
2019-02-22T17:09:37.280Z,2.70
2019-02-22T17:12:18.255Z,2.60
2019-02-22T17:14:59.412Z,2.60
2019-02-22T17:17:39.975Z,2.50
2019-02-22T17:20:20.687Z,2.40
2019-02-22T17:23:01.135Z,2.40
2019-02-22T17:25:42.119Z,2.40
2019-02-22T17:28:22.647Z,2.40
2019-02-22T17:31:03.197Z,2.40
2019-02-22T17:33:43.741Z,2.40
2019-02-22T17:36:27.199Z,2.40
2019-02-22T17:39:06.437Z,2.40
2019-02-22T17:41:47.445Z,1.70
2019-02-22T17:44:28.237Z,2.30
2019-02-22T17:47:08.800Z,2.20
2019-02-22T17:49:49.369Z,2.20
2019-02-22T17:52:31.873Z,2.10
2019-02-22T17:55:13.066Z,1.90
2019-02-22T17:57:54.229Z,2.00
2019-02-22T18:00:35.094Z,2.00
2019-02-22T18:03:15.660Z,2.00
2019-02-22T18:05:56.124Z,1.90
2019-02-22T18:08:37.202Z,1.90
2019-02-22T18:11:18.351Z,1.80
2019-02-22T18:13:59.441Z,0.90
2019-02-22T18:16:40.512Z,1.80
2019-02-22T18:19:21.078Z,1.80
2019-02-22T18:22:01.631Z,1.80
2019-02-22T18:24:42.445Z,1.80
2019-02-22T18:30:03.220Z,1.80
2019-02-22T18:32:44.197Z,1.70
2019-02-22T18:35:25.135Z,0.80
2019-02-22T18:38:05.997Z,1.70
2019-02-22T18:40:46.768Z,1.70
2019-02-22T18:43:28.007Z,1.60
2019-02-22T18:46:08.875Z,1.50
2019-02-22T18:48:49.376Z,1.50
2019-02-22T18:51:29.577Z,1.50
2019-02-22T18:54:10.470Z,1.50
2019-02-22T18:56:51.043Z,1.50
2019-02-22T18:59:31.427Z,1.50
2019-02-22T19:02:12.166Z,1.50
2019-02-22T19:04:52.869Z,1.40
2019-02-22T19:07:33.283Z,1.30
2019-02-22T19:10:13.951Z,1.30
2019-02-22T19:12:54.654Z,1.30
2019-02-22T19:15:35.286Z,1.30
2019-02-22T19:18:16.060Z,1.30
2019-02-22T19:20:56.953Z,1.30
2019-02-22T19:23:37.727Z,0.70
2019-02-22T19:26:18.608Z,1.10
2019-02-22T19:28:59.254Z,1.10
2019-02-22T19:31:40.095Z,1.10
2019-02-22T19:34:21.114Z,1.10
2019-02-22T19:37:01.604Z,0.50
2019-02-22T19:39:42.187Z,1.10
2019-02-22T19:42:22.775Z,1.10
2019-02-22T19:45:03.645Z,1.00
2019-02-22T19:47:44.707Z,1.00
2019-02-22T19:50:25.347Z,0.90
2019-02-22T19:53:06.263Z,0.90
2019-02-22T19:55:47.040Z,0.90
2019-02-22T19:58:27.288Z,0.90
2019-02-22T20:01:08.119Z,0.80
2019-02-22T20:03:48.712Z,0.80
2019-02-22T20:06:29.214Z,0.70
2019-02-22T20:09:09.666Z,0.70
2019-02-22T20:11:50.055Z,0.60
2019-02-22T20:14:30.630Z,0.60
2019-02-22T20:17:11.557Z,0.60
2019-02-22T20:19:52.463Z,0.60
2019-02-22T20:22:33.373Z,0.60
2019-02-22T20:25:14.243Z,0.50
2019-02-22T20:27:54.755Z,0.50
2019-02-22T20:30:35.746Z,0.50
2019-02-22T20:33:16.572Z,0.50
2019-02-22T20:35:57.518Z,0.40
2019-02-22T20:38:38.142Z,0.50
2019-02-22T20:41:18.467Z,0.50
2019-02-22T20:43:59.359Z,0.40
2019-02-22T20:46:40.126Z,0.40
2019-02-22T20:49:21.088Z,0.40
2019-02-22T20:52:01.756Z,0.40
2019-02-22T20:54:42.292Z,0.40
2019-02-22T20:57:22.771Z,0.40
2019-02-22T21:00:03.459Z,0.40
2019-02-22T21:02:44.291Z,0.40
2019-02-22T21:05:24.770Z,0.40
2019-02-22T21:08:05.087Z,0.40
2019-02-22T21:10:46.215Z,0.40
2019-02-22T21:13:28.192Z,0.30
2019-02-22T21:16:08.950Z,0.40
2019-02-22T21:18:49.422Z,0.30
2019-02-22T21:21:30.131Z,0.30
2019-02-22T21:24:11.116Z,0.30
2019-02-22T21:26:51.952Z,0.20
2019-02-22T21:29:32.601Z,0.40
2019-02-22T21:32:13.406Z,0.20
2019-02-22T21:34:54.139Z,0.20
2019-02-22T21:37:35.216Z,0.10
2019-02-22T21:40:15.963Z,0.20
2019-02-22T21:42:56.784Z,0.20
2019-02-22T21:45:37.831Z,0.20
2019-02-22T21:48:27.129Z,0.10
2019-02-22T21:51:01.730Z,0.10
2019-02-22T21:53:42.790Z,0.10
2019-02-22T21:56:23.688Z,0.10
2019-02-22T21:59:04.453Z,0.00
2019-02-22T22:01:45.324Z,-0.10
2019-02-22T22:04:25.935Z,0.00
2019-02-22T22:07:06.774Z,-0.10
2019-02-22T22:09:47.482Z,-0.20
2019-02-22T22:12:28.619Z,-0.20
2019-02-22T22:15:10.636Z,-0.20
2019-02-22T22:17:52.120Z,-0.20
2019-02-22T22:20:32.812Z,-0.20
2019-02-22T22:23:13.786Z,-0.20
2019-02-22T22:25:54.491Z,-0.20
2019-02-22T22:28:35.071Z,-0.20
2019-02-22T22:31:16.121Z,-0.20
2019-02-22T22:33:57.028Z,-0.30
2019-02-22T22:36:37.614Z,-0.20
2019-02-22T22:39:17.850Z,-0.30
2019-02-22T22:41:58.683Z,-0.30
2019-02-22T22:44:39.158Z,-0.40
2019-02-22T22:47:19.667Z,-0.40
2019-02-22T22:50:00.222Z,-0.40
2019-02-22T22:52:40.770Z,-1.40
2019-02-22T22:55:21.869Z,-0.60
2019-02-22T22:58:02.486Z,-0.50
2019-02-22T23:00:47.302Z,-0.50
2019-02-22T23:03:28.279Z,-0.40
2019-02-22T23:06:09.113Z,-0.40
2019-02-22T23:08:50.096Z,-0.50
2019-02-22T23:11:30.698Z,-0.60
2019-02-22T23:14:11.483Z,-0.60
2019-02-22T23:16:52.368Z,-0.70
2019-02-22T23:19:33.003Z,-0.70
2019-02-22T23:22:13.554Z,-0.80
2019-02-22T23:24:54.532Z,-0.80
2019-02-22T23:27:35.720Z,-0.80
2019-02-22T23:30:16.359Z,-0.80
2019-02-22T23:32:56.947Z,-0.70
2019-02-22T23:35:37.611Z,-0.60
2019-02-22T23:38:18.080Z,-0.70
2019-02-22T23:40:58.743Z,-0.60
2019-02-22T23:43:39.282Z,-0.60
2019-02-22T23:46:20.138Z,-0.50
2019-02-22T23:49:00.652Z,-0.60
2019-02-22T23:51:41.380Z,-0.50
2019-02-22T23:54:21.874Z,-0.50
2019-02-22T23:57:02.591Z,-0.50
2019-02-22T23:59:42.998Z,-0.50
